sensor_id;sensor_type;location;lat;lon;timestamp;P1;P2;P0
33948;PMS7003;20229;49.856;19.030;2024-02-26T00:04:20;57;45;28
33948;PMS7003;20229;49.856;19.030;2024-02-26T00:09:35;61;49;30
33948;PMS7003;20229;49.856;19.030;2024-02-26T00:14:51;55;45;28
33948;PMS7003;20229;49.856;19.030;2024-02-26T00:20:06;56;43;27
33948;PMS7003;20229;49.856;19.030;2024-02-26T00:25:21;54;41;27
33948;PMS7003;20229;49.856;19.030;2024-02-26T00:30:35;57;44;28
33948;PMS7003;20229;49.856;19.030;2024-02-26T00:35:49;54;42;26
33948;PMS7003;20229;49.856;19.030;2024-02-26T00:41:04;54;42;27
33948;PMS7003;20229;49.856;19.030;2024-02-26T00:46:17;55;43;27
33948;PMS7003;20229;49.856;19.030;2024-02-26T00:51:32;55;41;26
33948;PMS7003;20229;49.856;19.030;2024-02-26T00:56:45;56;43;27
33948;PMS7003;20229;49.856;19.030;2024-02-26T01:02:00;56;43;27
33948;PMS7003;20229;49.856;19.030;2024-02-26T01:07:17;55;44;28
33948;PMS7003;20229;49.856;19.030;2024-02-26T01:12:30;55;43;27
33948;PMS7003;20229;49.856;19.030;2024-02-26T01:17:44;52;40;25
33948;PMS7003;20229;49.856;19.030;2024-02-26T01:22:58;50;38;22
33948;PMS7003;20229;49.856;19.030;2024-02-26T01:28:12;50;39;24
33948;PMS7003;20229;49.856;19.030;2024-02-26T01:33:27;50;39;25
33948;PMS7003;20229;49.856;19.030;2024-02-26T01:38:42;56;42;27
33948;PMS7003;20229;49.856;19.030;2024-02-26T01:43:56;53;42;26
33948;PMS7003;20229;49.856;19.030;2024-02-26T01:49:11;54;43;26
33948;PMS7003;20229;49.856;19.030;2024-02-26T01:54:26;53;40;25
33948;PMS7003;20229;49.856;19.030;2024-02-26T01:59:40;48;38;24
33948;PMS7003;20229;49.856;19.030;2024-02-26T02:04:57;52;41;26
33948;PMS7003;20229;49.856;19.030;2024-02-26T02:10:10;52;42;26
33948;PMS7003;20229;49.856;19.030;2024-02-26T02:15:24;59;43;26
33948;PMS7003;20229;49.856;19.030;2024-02-26T02:20:38;50;40;24
33948;PMS7003;20229;49.856;19.030;2024-02-26T02:25:52;50;40;25
33948;PMS7003;20229;49.856;19.030;2024-02-26T02:31:08;49;39;26
33948;PMS7003;20229;49.856;19.030;2024-02-26T02:36:22;49;39;25
33948;PMS7003;20229;49.856;19.030;2024-02-26T02:41:36;51;40;26
33948;PMS7003;20229;49.856;19.030;2024-02-26T02:46:50;46;37;23
33948;PMS7003;20229;49.856;19.030;2024-02-26T02:52:06;42;34;22
33948;PMS7003;20229;49.856;19.030;2024-02-26T02:57:20;45;34;22
33948;PMS7003;20229;49.856;19.030;2024-02-26T03:02:35;34;28;18
33948;PMS7003;20229;49.856;19.030;2024-02-26T03:07:50;37;28;16
33948;PMS7003;20229;49.856;19.030;2024-02-26T03:13:04;32;27;18
33948;PMS7003;20229;49.856;19.030;2024-02-26T03:18:21;34;28;18
33948;PMS7003;20229;49.856;19.030;2024-02-26T03:23:35;33;29;18
33948;PMS7003;20229;49.856;19.030;2024-02-26T03:28:49;32;26;17
33948;PMS7003;20229;49.856;19.030;2024-02-26T03:34:03;34;29;19
33948;PMS7003;20229;49.856;19.030;2024-02-26T03:39:18;40;33;22
33948;PMS7003;20229;49.856;19.030;2024-02-26T03:44:33;34;28;17
33948;PMS7003;20229;49.856;19.030;2024-02-26T03:49:47;44;36;23
33948;PMS7003;20229;49.856;19.030;2024-02-26T03:55:01;42;34;21
33948;PMS7003;20229;49.856;19.030;2024-02-26T04:00:16;43;33;21
33948;PMS7003;20229;49.856;19.030;2024-02-26T04:05:29;40;32;22
33948;PMS7003;20229;49.856;19.030;2024-02-26T04:10:45;39;32;21
33948;PMS7003;20229;49.856;19.030;2024-02-26T04:15:59;35;28;19
33948;PMS7003;20229;49.856;19.030;2024-02-26T04:21:15;38;31;20
33948;PMS7003;20229;49.856;19.030;2024-02-26T04:26:29;35;29;19
33948;PMS7003;20229;49.856;19.030;2024-02-26T04:31:46;36;31;19
33948;PMS7003;20229;49.856;19.030;2024-02-26T04:37:01;36;29;19
33948;PMS7003;20229;49.856;19.030;2024-02-26T04:42:15;36;30;20
33948;PMS7003;20229;49.856;19.030;2024-02-26T04:47:29;38;30;20
33948;PMS7003;20229;49.856;19.030;2024-02-26T04:52:43;37;30;19
33948;PMS7003;20229;49.856;19.030;2024-02-26T04:57:57;40;33;20
33948;PMS7003;20229;49.856;19.030;2024-02-26T05:03:10;40;32;20
33948;PMS7003;20229;49.856;19.030;2024-02-26T05:08:29;38;30;20
33948;PMS7003;20229;49.856;19.030;2024-02-26T05:13:45;37;30;21
33948;PMS7003;20229;49.856;19.030;2024-02-26T05:18:59;27;22;17
33948;PMS7003;20229;49.856;19.030;2024-02-26T05:24:12;21;19;12
33948;PMS7003;20229;49.856;19.030;2024-02-26T05:29:30;13;11;8
33948;PMS7003;20229;49.856;19.030;2024-02-26T05:34:44;13;12;8
33948;PMS7003;20229;49.856;19.030;2024-02-26T05:39:58;15;13;8
33948;PMS7003;20229;49.856;19.030;2024-02-26T05:45:12;15;13;10
33948;PMS7003;20229;49.856;19.030;2024-02-26T05:50:28;13;12;8
33948;PMS7003;20229;49.856;19.030;2024-02-26T05:55:42;11;9;6
33948;PMS7003;20229;49.856;19.030;2024-02-26T06:00:56;11;10;6
33948;PMS7003;20229;49.856;19.030;2024-02-26T06:06:10;11;9;7
33948;PMS7003;20229;49.856;19.030;2024-02-26T06:11:24;15;14;9
33948;PMS7003;20229;49.856;19.030;2024-02-26T06:16:45;16;11;8
33948;PMS7003;20229;49.856;19.030;2024-02-26T06:22:00;23;20;13
33948;PMS7003;20229;49.856;19.030;2024-02-26T06:27:13;26;22;16
33948;PMS7003;20229;49.856;19.030;2024-02-26T06:32:27;29;24;15
33948;PMS7003;20229;49.856;19.030;2024-02-26T06:37:42;21;19;13
33948;PMS7003;20229;49.856;19.030;2024-02-26T06:42:56;19;17;10
33948;PMS7003;20229;49.856;19.030;2024-02-26T06:48:10;18;16;11
33948;PMS7003;20229;49.856;19.030;2024-02-26T06:53:24;24;22;14
33948;PMS7003;20229;49.856;19.030;2024-02-26T06:58:42;19;18;12
33948;PMS7003;20229;49.856;19.030;2024-02-26T07:03:56;20;18;11
33948;PMS7003;20229;49.856;19.030;2024-02-26T07:09:10;20;19;12
33948;PMS7003;20229;49.856;19.030;2024-02-26T07:14:25;21;18;12
33948;PMS7003;20229;49.856;19.030;2024-02-26T07:19:42;18;14;9
33948;PMS7003;20229;49.856;19.030;2024-02-26T07:24:56;16;14;9
33948;PMS7003;20229;49.856;19.030;2024-02-26T07:30:11;17;15;10
33948;PMS7003;20229;49.856;19.030;2024-02-26T07:35:25;17;16;11
33948;PMS7003;20229;49.856;19.030;2024-02-26T07:40:42;18;17;10
33948;PMS7003;20229;49.856;19.030;2024-02-26T07:45:55;16;14;9
33948;PMS7003;20229;49.856;19.030;2024-02-26T07:51:13;18;17;12
33948;PMS7003;20229;49.856;19.030;2024-02-26T07:56:27;26;22;13
33948;PMS7003;20229;49.856;19.030;2024-02-26T08:01:41;25;23;14
33948;PMS7003;20229;49.856;19.030;2024-02-26T08:06:56;25;21;14
33948;PMS7003;20229;49.856;19.030;2024-02-26T08:12:09;23;22;15
33948;PMS7003;20229;49.856;19.030;2024-02-26T08:17:23;18;16;11
33948;PMS7003;20229;49.856;19.030;2024-02-26T08:22:39;17;15;9
33948;PMS7003;20229;49.856;19.030;2024-02-26T08:27:53;15;14;8
33948;PMS7003;20229;49.856;19.030;2024-02-26T08:33:07;17;14;9
33948;PMS7003;20229;49.856;19.030;2024-02-26T08:38:23;17;15;9
33948;PMS7003;20229;49.856;19.030;2024-02-26T08:43:36;16;13;8
33948;PMS7003;20229;49.856;19.030;2024-02-26T08:48:50;24;21;14
33948;PMS7003;20229;49.856;19.030;2024-02-26T08:54:04;17;14;9
33948;PMS7003;20229;49.856;19.030;2024-02-26T09:12:39;13;9;7
33948;PMS7003;20229;49.856;19.030;2024-02-26T09:18:04;14;12;8
33948;PMS7003;20229;49.856;19.030;2024-02-26T09:23:20;13;13;8
33948;PMS7003;20229;49.856;19.030;2024-02-26T09:28:34;15;13;9
33948;PMS7003;20229;49.856;19.030;2024-02-26T09:33:51;15;13;9
33948;PMS7003;20229;49.856;19.030;2024-02-26T10:10:49;21;19;13
33948;PMS7003;20229;49.856;19.030;2024-02-26T10:16:15;24;21;15
33948;PMS7003;20229;49.856;19.030;2024-02-26T10:21:29;25;22;15
33948;PMS7003;20229;49.856;19.030;2024-02-26T10:26:46;23;20;11
33948;PMS7003;20229;49.856;19.030;2024-02-26T10:32:00;20;19;12
33948;PMS7003;20229;49.856;19.030;2024-02-26T10:37:15;22;17;11
33948;PMS7003;20229;49.856;19.030;2024-02-26T10:42:30;21;18;12
33948;PMS7003;20229;49.856;19.030;2024-02-26T10:47:44;15;12;8
33948;PMS7003;20229;49.856;19.030;2024-02-26T10:52:59;15;14;9
33948;PMS7003;20229;49.856;19.030;2024-02-26T10:58:14;13;11;9
33948;PMS7003;20229;49.856;19.030;2024-02-26T11:03:30;14;13;8
33948;PMS7003;20229;49.856;19.030;2024-02-26T11:08:49;12;12;8
33948;PMS7003;20229;49.856;19.030;2024-02-26T11:14:04;13;12;8
33948;PMS7003;20229;49.856;19.030;2024-02-26T11:19:19;14;14;8
33948;PMS7003;20229;49.856;19.030;2024-02-26T11:24:34;14;14;8
33948;PMS7003;20229;49.856;19.030;2024-02-26T11:29:57;13;11;7
33948;PMS7003;20229;49.856;19.030;2024-02-26T11:35:14;14;13;8
33948;PMS7003;20229;49.856;19.030;2024-02-26T11:40:32;14;12;8
33948;PMS7003;20229;49.856;19.030;2024-02-26T11:45:55;13;13;7
33948;PMS7003;20229;49.856;19.030;2024-02-26T11:51:13;16;15;10
33948;PMS7003;20229;49.856;19.030;2024-02-26T11:56:28;15;14;9
33948;PMS7003;20229;49.856;19.030;2024-02-26T12:01:47;24;20;11
33948;PMS7003;20229;49.856;19.030;2024-02-26T12:07:02;21;20;13
33948;PMS7003;20229;49.856;19.030;2024-02-26T12:12:19;27;24;16
33948;PMS7003;20229;49.856;19.030;2024-02-26T12:17:39;22;21;13
33948;PMS7003;20229;49.856;19.030;2024-02-26T12:22:54;22;19;12
33948;PMS7003;20229;49.856;19.030;2024-02-26T12:28:09;33;26;16
33948;PMS7003;20229;49.856;19.030;2024-02-26T12:33:25;33;28;18
33948;PMS7003;20229;49.856;19.030;2024-02-26T12:38:39;24;22;15
33948;PMS7003;20229;49.856;19.030;2024-02-26T12:43:54;28;26;15
33948;PMS7003;20229;49.856;19.030;2024-02-26T12:49:09;29;25;17
33948;PMS7003;20229;49.856;19.030;2024-02-26T12:54:32;37;31;18
33948;PMS7003;20229;49.856;19.030;2024-02-26T12:59:49;34;29;18
33948;PMS7003;20229;49.856;19.030;2024-02-26T13:05:04;29;26;16
33948;PMS7003;20229;49.856;19.030;2024-02-26T13:10:21;33;28;18
33948;PMS7003;20229;49.856;19.030;2024-02-26T13:15:35;34;25;16
33948;PMS7003;20229;49.856;19.030;2024-02-26T13:20:49;23;22;15
33948;PMS7003;20229;49.856;19.030;2024-02-26T13:26:03;29;23;15
33948;PMS7003;20229;49.856;19.030;2024-02-26T13:31:17;22;19;12
33948;PMS7003;20229;49.856;19.030;2024-02-26T13:36:33;8;7;5
33948;PMS7003;20229;49.856;19.030;2024-02-26T13:41:46;7;6;4
33948;PMS7003;20229;49.856;19.030;2024-02-26T13:47:00;8;5;4
33948;PMS7003;20229;49.856;19.030;2024-02-26T13:52:14;11;9;5
33948;PMS7003;20229;49.856;19.030;2024-02-26T13:57:28;7;6;4
33948;PMS7003;20229;49.856;19.030;2024-02-26T14:02:42;7;6;3
33948;PMS7003;20229;49.856;19.030;2024-02-26T14:07:56;11;7;5
33948;PMS7003;20229;49.856;19.030;2024-02-26T14:13:10;8;7;4
33948;PMS7003;20229;49.856;19.030;2024-02-26T14:18:24;7;6;4
33948;PMS7003;20229;49.856;19.030;2024-02-26T14:23:38;8;8;5
33948;PMS7003;20229;49.856;19.030;2024-02-26T14:28:53;6;6;3
33948;PMS7003;20229;49.856;19.030;2024-02-26T14:34:07;8;7;3
33948;PMS7003;20229;49.856;19.030;2024-02-26T14:39:24;14;12;7
33948;PMS7003;20229;49.856;19.030;2024-02-26T14:44:38;18;16;10
33948;PMS7003;20229;49.856;19.030;2024-02-26T14:49:52;13;11;7
33948;PMS7003;20229;49.856;19.030;2024-02-26T14:55:06;10;8;5
33948;PMS7003;20229;49.856;19.030;2024-02-26T15:00:20;11;10;6
33948;PMS7003;20229;49.856;19.030;2024-02-26T15:05:34;8;6;4
33948;PMS7003;20229;49.856;19.030;2024-02-26T15:10:48;11;9;6
33948;PMS7003;20229;49.856;19.030;2024-02-26T15:16:03;9;8;5
33948;PMS7003;20229;49.856;19.030;2024-02-26T15:21:17;9;7;5
33948;PMS7003;20229;49.856;19.030;2024-02-26T15:26:31;45;36;23
33948;PMS7003;20229;49.856;19.030;2024-02-26T15:31:45;8;8;5
33948;PMS7003;20229;49.856;19.030;2024-02-26T15:36:58;17;16;11
33948;PMS7003;20229;49.856;19.030;2024-02-26T15:42:14;38;31;18
33948;PMS7003;20229;49.856;19.030;2024-02-26T15:47:29;83;66;37
33948;PMS7003;20229;49.856;19.030;2024-02-26T15:52:43;69;58;33
33948;PMS7003;20229;49.856;19.030;2024-02-26T15:57:59;67;56;30
33948;PMS7003;20229;49.856;19.030;2024-02-26T16:03:13;174;143;64
33948;PMS7003;20229;49.856;19.030;2024-02-26T16:08:27;57;45;26
33948;PMS7003;20229;49.856;19.030;2024-02-26T16:13:41;46;36;21
33948;PMS7003;20229;49.856;19.030;2024-02-26T16:18:58;43;31;18
33948;PMS7003;20229;49.856;19.030;2024-02-26T16:24:21;21;20;12
33948;PMS7003;20229;49.856;19.030;2024-02-26T16:29:35;32;26;15
33948;PMS7003;20229;49.856;19.030;2024-02-26T16:34:50;30;24;13
33948;PMS7003;20229;49.856;19.030;2024-02-26T16:40:05;20;17;11
33948;PMS7003;20229;49.856;19.030;2024-02-26T16:45:24;19;16;10
33948;PMS7003;20229;49.856;19.030;2024-02-26T16:50:40;24;18;11
33948;PMS7003;20229;49.856;19.030;2024-02-26T16:55:54;38;31;18
33948;PMS7003;20229;49.856;19.030;2024-02-26T17:01:10;31;28;16
33948;PMS7003;20229;49.856;19.030;2024-02-26T17:06:24;35;29;18
33948;PMS7003;20229;49.856;19.030;2024-02-26T17:11:39;40;32;20
33948;PMS7003;20229;49.856;19.030;2024-02-26T17:16:55;35;29;18
33948;PMS7003;20229;49.856;19.030;2024-02-26T17:22:09;34;28;19
33948;PMS7003;20229;49.856;19.030;2024-02-26T17:27:24;37;29;19
33948;PMS7003;20229;49.856;19.030;2024-02-26T17:32:46;40;32;20
33948;PMS7003;20229;49.856;19.030;2024-02-26T17:38:13;41;34;21
33948;PMS7003;20229;49.856;19.030;2024-02-26T17:43:30;43;33;20
33948;PMS7003;20229;49.856;19.030;2024-02-26T17:48:52;40;33;22
33948;PMS7003;20229;49.856;19.030;2024-02-26T17:54:06;40;33;21
33948;PMS7003;20229;49.856;19.030;2024-02-26T17:59:20;39;31;20
33948;PMS7003;20229;49.856;19.030;2024-02-26T18:04:34;37;30;18
33948;PMS7003;20229;49.856;19.030;2024-02-26T18:09:48;34;28;17
33948;PMS7003;20229;49.856;19.030;2024-02-26T18:15:02;31;26;17
33948;PMS7003;20229;49.856;19.030;2024-02-26T18:20:17;39;30;18
33948;PMS7003;20229;49.856;19.030;2024-02-26T18:25:31;42;30;18
33948;PMS7003;20229;49.856;19.030;2024-02-26T18:30:45;41;34;20
33948;PMS7003;20229;49.856;19.030;2024-02-26T18:35:59;46;36;22
33948;PMS7003;20229;49.856;19.030;2024-02-26T18:41:20;43;34;21
33948;PMS7003;20229;49.856;19.030;2024-02-26T18:51:59;55;43;26
33948;PMS7003;20229;49.856;19.030;2024-02-26T18:57:13;54;41;26
33948;PMS7003;20229;49.856;19.030;2024-02-26T19:02:27;54;42;26
33948;PMS7003;20229;49.856;19.030;2024-02-26T19:07:42;53;41;24
33948;PMS7003;20229;49.856;19.030;2024-02-26T19:12:56;57;44;27
33948;PMS7003;20229;49.856;19.030;2024-02-26T19:18:11;55;41;26
33948;PMS7003;20229;49.856;19.030;2024-02-26T19:23:25;56;41;26
33948;PMS7003;20229;49.856;19.030;2024-02-26T19:28:39;51;41;26
33948;PMS7003;20229;49.856;19.030;2024-02-26T19:33:59;58;45;27
33948;PMS7003;20229;49.856;19.030;2024-02-26T19:39:14;61;50;30
33948;PMS7003;20229;49.856;19.030;2024-02-26T19:44:31;60;48;28
33948;PMS7003;20229;49.856;19.030;2024-02-26T19:49:45;58;46;28
33948;PMS7003;20229;49.856;19.030;2024-02-26T19:55:01;59;46;28
33948;PMS7003;20229;49.856;19.030;2024-02-26T20:00:16;58;45;27
33948;PMS7003;20229;49.856;19.030;2024-02-26T20:05:30;44;33;17
33948;PMS7003;20229;49.856;19.030;2024-02-26T20:10:44;55;44;27
33948;PMS7003;20229;49.856;19.030;2024-02-26T20:16:04;54;42;27
33948;PMS7003;20229;49.856;19.030;2024-02-26T20:21:19;55;42;27
33948;PMS7003;20229;49.856;19.030;2024-02-26T20:26:36;55;41;26
33948;PMS7003;20229;49.856;19.030;2024-02-26T20:31:51;53;41;25
33948;PMS7003;20229;49.856;19.030;2024-02-26T20:37:05;68;55;30
33948;PMS7003;20229;49.856;19.030;2024-02-26T20:42:19;71;58;31
33948;PMS7003;20229;49.856;19.030;2024-02-26T20:47:33;55;43;26
33948;PMS7003;20229;49.856;19.030;2024-02-26T20:52:46;51;40;25
33948;PMS7003;20229;49.856;19.030;2024-02-26T20:58:06;54;40;25
33948;PMS7003;20229;49.856;19.030;2024-02-26T21:03:19;50;38;24
33948;PMS7003;20229;49.856;19.030;2024-02-26T21:08:34;54;42;26
33948;PMS7003;20229;49.856;19.030;2024-02-26T21:13:48;60;48;29
33948;PMS7003;20229;49.856;19.030;2024-02-26T21:19:02;65;55;31
33948;PMS7003;20229;49.856;19.030;2024-02-26T21:24:19;63;51;29
33948;PMS7003;20229;49.856;19.030;2024-02-26T21:29:35;57;44;26
33948;PMS7003;20229;49.856;19.030;2024-02-26T21:34:50;57;44;27
33948;PMS7003;20229;49.856;19.030;2024-02-26T21:40:05;56;43;26
33948;PMS7003;20229;49.856;19.030;2024-02-26T21:45:21;56;44;28
33948;PMS7003;20229;49.856;19.030;2024-02-26T21:50:35;55;43;26
33948;PMS7003;20229;49.856;19.030;2024-02-26T21:55:53;56;44;27
33948;PMS7003;20229;49.856;19.030;2024-02-26T22:01:13;51;40;25
33948;PMS7003;20229;49.856;19.030;2024-02-26T22:06:31;56;41;25
33948;PMS7003;20229;49.856;19.030;2024-02-26T22:11:45;51;38;24
33948;PMS7003;20229;49.856;19.030;2024-02-26T22:17:01;52;39;25
33948;PMS7003;20229;49.856;19.030;2024-02-26T22:22:15;52;41;25
33948;PMS7003;20229;49.856;19.030;2024-02-26T22:27:29;51;40;24
33948;PMS7003;20229;49.856;19.030;2024-02-26T22:32:42;49;39;25
33948;PMS7003;20229;49.856;19.030;2024-02-26T22:37:56;51;39;25
33948;PMS7003;20229;49.856;19.030;2024-02-26T22:43:10;54;43;27
33948;PMS7003;20229;49.856;19.030;2024-02-26T22:48:24;49;39;25
33948;PMS7003;20229;49.856;19.030;2024-02-26T22:53:38;54;41;26
33948;PMS7003;20229;49.856;19.030;2024-02-26T22:58:53;52;41;26
33948;PMS7003;20229;49.856;19.030;2024-02-26T23:04:10;50;39;25
33948;PMS7003;20229;49.856;19.030;2024-02-26T23:09:23;53;41;26
33948;PMS7003;20229;49.856;19.030;2024-02-26T23:14:37;51;40;25
33948;PMS7003;20229;49.856;19.030;2024-02-26T23:19:51;50;39;25
33948;PMS7003;20229;49.856;19.030;2024-02-26T23:25:09;51;40;26
33948;PMS7003;20229;49.856;19.030;2024-02-26T23:30:24;48;36;22
33948;PMS7003;20229;49.856;19.030;2024-02-26T23:35:38;52;43;26
33948;PMS7003;20229;49.856;19.030;2024-02-26T23:40:51;56;42;26
33948;PMS7003;20229;49.856;19.030;2024-02-26T23:46:05;55;46;28
33948;PMS7003;20229;49.856;19.030;2024-02-26T23:51:19;52;41;26
33948;PMS7003;20229;49.856;19.030;2024-02-26T23:56:33;54;42;27
